createdAt,value
2019-02-02T00:00:45.369Z,6.20
2019-02-02T00:03:17.810Z,6.30
2019-02-02T00:05:50.630Z,6.30
2019-02-02T00:08:23.370Z,6.40
2019-02-02T00:10:55.445Z,6.50
2019-02-02T00:13:28.289Z,6.50
2019-02-02T00:16:01.531Z,6.50
2019-02-02T00:18:34.437Z,6.50
2019-02-02T00:21:06.990Z,6.50
2019-02-02T00:23:38.930Z,6.50
2019-02-02T00:26:12.131Z,6.50
2019-02-02T00:28:44.730Z,6.50
2019-02-02T00:31:15.630Z,6.40
2019-02-02T00:33:48.896Z,6.40
2019-02-02T00:36:21.064Z,6.40
2019-02-02T00:38:53.169Z,6.30
2019-02-02T00:41:26.092Z,6.30
2019-02-02T00:43:59.431Z,6.30
2019-02-02T00:46:31.550Z,6.20
2019-02-02T00:49:03.650Z,6.20
2019-02-02T00:51:37.210Z,6.30
2019-02-02T00:54:10.850Z,6.30
2019-02-02T00:56:44.652Z,6.30
2019-02-02T00:59:17.469Z,6.30
2019-02-02T01:01:49.850Z,6.30
2019-02-02T01:04:22.370Z,6.30
2019-02-02T01:06:55.477Z,6.40
2019-02-02T01:09:29.252Z,6.40
2019-02-02T01:12:02.910Z,6.40
2019-02-02T01:14:35.991Z,6.40
2019-02-02T01:17:08.330Z,6.40
2019-02-02T01:19:41.409Z,6.40
2019-02-02T01:22:14.829Z,6.40
2019-02-02T01:24:48.350Z,6.30
2019-02-02T01:27:20.430Z,6.20
2019-02-02T01:29:52.571Z,6.30
2019-02-02T01:32:25.070Z,6.30
2019-02-02T01:34:57.631Z,6.30
2019-02-02T01:37:30.570Z,6.30
2019-02-02T01:40:03.713Z,6.30
2019-02-02T01:42:36.369Z,6.40
2019-02-02T01:45:10.594Z,6.50
2019-02-02T01:47:43.870Z,6.50
2019-02-02T01:50:19.266Z,6.50
2019-02-02T01:52:52.769Z,6.50
2019-02-02T01:55:26.191Z,6.30
2019-02-02T01:57:59.029Z,6.30
2019-02-02T02:00:33.712Z,6.20
2019-02-02T02:03:06.889Z,6.20
2019-02-02T02:05:39.868Z,6.20
2019-02-02T02:08:12.910Z,6.20
2019-02-02T02:10:45.610Z,6.30
2019-02-02T02:13:18.376Z,6.20
2019-02-02T02:15:51.150Z,6.20
2019-02-02T02:18:24.811Z,6.10
2019-02-02T02:20:58.430Z,6.10
2019-02-02T02:23:29.990Z,6.10
2019-02-02T02:26:03.050Z,6.10
2019-02-02T02:28:36.091Z,6.10
2019-02-02T02:31:08.931Z,6.10
2019-02-02T02:33:42.309Z,6.20
2019-02-02T02:36:15.270Z,6.20
2019-02-02T02:38:47.870Z,6.20
2019-02-02T02:41:21.051Z,6.20
2019-02-02T02:43:53.873Z,6.20
2019-02-02T02:46:26.532Z,6.10
2019-02-02T02:48:58.710Z,6.10
2019-02-02T02:51:32.130Z,6.10
2019-02-02T02:54:04.490Z,6.10
2019-02-02T02:56:37.051Z,6.20
2019-02-02T02:59:10.051Z,6.20
2019-02-02T03:01:43.010Z,6.20
2019-02-02T03:04:15.069Z,6.10
2019-02-02T03:06:47.370Z,6.10
2019-02-02T03:09:19.328Z,6.10
2019-02-02T03:11:50.290Z,6.10
2019-02-02T03:14:22.710Z,6.10
2019-02-02T03:16:55.410Z,6.10
2019-02-02T03:19:28.293Z,6.10
2019-02-02T03:22:01.509Z,6.00
2019-02-02T03:24:33.809Z,6.00
2019-02-02T03:27:06.209Z,6.00
2019-02-02T03:29:39.811Z,6.00
2019-02-02T03:32:12.051Z,6.00
2019-02-02T03:34:44.450Z,6.00
2019-02-02T03:37:17.397Z,6.00
2019-02-02T03:39:50.331Z,5.90
2019-02-02T03:42:23.972Z,5.90
2019-02-02T03:44:57.250Z,5.90
2019-02-02T03:47:29.289Z,5.90
2019-02-02T03:50:01.990Z,5.80
2019-02-02T03:52:34.872Z,5.80
2019-02-02T03:55:08.789Z,5.80
2019-02-02T03:57:42.430Z,5.80
2019-02-02T04:00:16.890Z,5.80
2019-02-02T04:02:49.929Z,5.80
2019-02-02T04:05:26.533Z,5.90
2019-02-02T04:07:58.849Z,5.90
2019-02-02T04:10:30.974Z,5.90
2019-02-02T04:13:03.550Z,5.90
2019-02-02T04:15:35.870Z,6.00
2019-02-02T04:18:08.892Z,6.00
2019-02-02T04:20:42.209Z,6.00
2019-02-02T04:23:15.430Z,5.90
2019-02-02T04:25:48.930Z,5.90
2019-02-02T04:28:22.890Z,5.80
2019-02-02T04:30:55.409Z,5.80
2019-02-02T04:33:28.111Z,5.90
2019-02-02T04:36:01.091Z,5.90
2019-02-02T04:38:34.349Z,5.90
2019-02-02T04:41:07.308Z,5.90
2019-02-02T04:43:40.108Z,6.00
2019-02-02T04:46:12.589Z,5.90
2019-02-02T04:48:45.309Z,5.90
2019-02-02T04:51:18.633Z,5.90
2019-02-02T04:53:50.691Z,5.90
2019-02-02T04:56:23.328Z,5.90
2019-02-02T04:58:56.690Z,6.00
2019-02-02T05:01:29.450Z,6.00
2019-02-02T05:04:02.471Z,6.10
2019-02-02T05:06:35.849Z,6.10
2019-02-02T05:09:09.090Z,6.10
2019-02-02T05:11:41.710Z,6.10
2019-02-02T05:14:14.689Z,6.10
2019-02-02T05:16:47.269Z,6.20
2019-02-02T05:19:20.010Z,6.20
2019-02-02T05:21:52.611Z,6.10
2019-02-02T05:24:25.069Z,6.10
2019-02-02T05:26:58.030Z,6.10
2019-02-02T05:29:40.814Z,6.20
2019-02-02T05:32:04.489Z,6.10
2019-02-02T05:34:37.009Z,6.10
2019-02-02T05:37:09.730Z,6.10
2019-02-02T05:39:41.929Z,6.00
2019-02-02T05:42:14.050Z,6.10
2019-02-02T05:44:46.749Z,6.10
2019-02-02T05:47:19.408Z,6.10
2019-02-02T05:49:51.188Z,6.00
2019-02-02T05:52:23.912Z,6.00
2019-02-02T05:54:56.930Z,6.10
2019-02-02T05:57:30.232Z,6.10
2019-02-02T06:00:02.534Z,6.10
2019-02-02T06:02:35.428Z,6.10
2019-02-02T06:05:08.568Z,6.00
2019-02-02T06:07:42.049Z,6.00
2019-02-02T06:10:15.330Z,6.00
2019-02-02T06:12:47.330Z,6.00
2019-02-02T06:15:20.329Z,5.90
2019-02-02T06:17:53.171Z,5.90
2019-02-02T06:20:25.450Z,5.90
2019-02-02T06:22:57.969Z,5.90
2019-02-02T06:25:31.050Z,6.00
2019-02-02T06:28:04.032Z,6.00
2019-02-02T06:30:37.811Z,6.00
2019-02-02T06:33:10.151Z,6.00
2019-02-02T06:35:43.089Z,6.00
2019-02-02T06:38:16.431Z,6.00
2019-02-02T06:40:49.529Z,6.00
2019-02-02T06:43:22.011Z,6.00
2019-02-02T06:45:54.530Z,6.00
2019-02-02T06:48:27.026Z,6.00
2019-02-02T06:50:59.229Z,6.00
2019-02-02T06:53:32.829Z,6.00
2019-02-02T06:56:05.608Z,6.00
2019-02-02T06:58:37.770Z,6.00
2019-02-02T07:01:10.470Z,6.00
2019-02-02T07:03:43.869Z,6.00
2019-02-02T07:06:15.610Z,6.00
2019-02-02T07:08:47.792Z,6.10
2019-02-02T07:11:19.929Z,6.10
2019-02-02T07:13:52.291Z,6.10
2019-02-02T07:16:25.271Z,6.10
2019-02-02T07:18:58.386Z,6.20
2019-02-02T07:21:30.814Z,6.10
2019-02-02T07:24:03.171Z,6.10
2019-02-02T07:26:36.071Z,6.10
2019-02-02T07:29:08.650Z,6.10
2019-02-02T07:31:40.709Z,6.10
2019-02-02T07:34:13.911Z,6.10
2019-02-02T07:36:46.881Z,6.10
2019-02-02T07:39:19.649Z,6.10
2019-02-02T07:41:52.611Z,6.10
2019-02-02T07:44:25.052Z,6.10
2019-02-02T07:46:59.250Z,6.20
2019-02-02T07:49:32.449Z,6.20
2019-02-02T07:52:05.452Z,6.10
2019-02-02T07:54:38.210Z,6.10
2019-02-02T07:57:10.770Z,6.10
2019-02-02T07:59:43.011Z,6.10
2019-02-02T08:02:16.489Z,6.10
2019-02-02T08:04:49.009Z,6.10
2019-02-02T08:07:22.383Z,6.20
2019-02-02T08:09:55.028Z,6.30
2019-02-02T08:12:28.108Z,6.30
2019-02-02T08:15:01.710Z,6.40
2019-02-02T08:17:35.248Z,6.40
2019-02-02T08:20:08.067Z,6.40
2019-02-02T08:22:40.348Z,6.30
2019-02-02T08:25:13.508Z,6.30
2019-02-02T08:27:46.202Z,6.30
2019-02-02T08:30:20.007Z,6.30
2019-02-02T08:32:52.446Z,6.30
2019-02-02T08:35:24.968Z,6.40
2019-02-02T08:37:58.186Z,6.40
2019-02-02T08:40:30.412Z,6.50
2019-02-02T08:43:02.335Z,6.50
2019-02-02T08:45:34.882Z,6.50
2019-02-02T08:48:06.951Z,6.50
2019-02-02T08:50:41.090Z,6.40
2019-02-02T08:53:14.534Z,6.40
2019-02-02T08:55:47.081Z,6.40
2019-02-02T08:58:20.455Z,6.40
2019-02-02T09:01:03.440Z,6.30
2019-02-02T09:03:26.533Z,6.30
2019-02-02T09:05:59.363Z,6.30
2019-02-02T09:08:31.900Z,6.20
2019-02-02T09:11:04.719Z,6.20
2019-02-02T09:13:37.049Z,6.20
2019-02-02T09:16:09.239Z,6.20
2019-02-02T09:18:41.938Z,6.20
2019-02-02T09:21:14.824Z,6.10
2019-02-02T09:23:47.205Z,6.10
2019-02-02T09:26:19.725Z,6.10
2019-02-02T09:28:52.477Z,6.10
2019-02-02T09:31:24.124Z,6.10
2019-02-02T09:33:56.944Z,6.10
2019-02-02T09:36:29.526Z,6.20
2019-02-02T09:39:02.743Z,6.10
2019-02-02T09:41:34.943Z,6.20
2019-02-02T09:44:07.523Z,6.20
2019-02-02T09:46:40.273Z,6.20
2019-02-02T09:49:12.459Z,6.20
2019-02-02T09:51:45.242Z,6.30
2019-02-02T09:54:26.321Z,6.30
2019-02-02T09:56:51.255Z,6.30
2019-02-02T09:59:24.506Z,6.30
2019-02-02T10:01:57.653Z,6.40
2019-02-02T10:04:30.954Z,6.30
2019-02-02T10:07:02.834Z,6.30
2019-02-02T10:09:35.583Z,6.20
2019-02-02T10:12:07.520Z,6.20
2019-02-02T10:14:39.741Z,6.20
2019-02-02T10:17:12.275Z,6.30
2019-02-02T10:19:45.007Z,6.40
2019-02-02T10:22:16.886Z,6.50
2019-02-02T10:24:49.508Z,6.50
2019-02-02T10:27:22.047Z,6.60
2019-02-02T10:29:53.146Z,6.70
2019-02-02T10:32:25.336Z,6.70
2019-02-02T10:34:58.266Z,6.80
2019-02-02T10:37:31.527Z,6.80
2019-02-02T10:40:04.769Z,6.90
2019-02-02T10:42:38.366Z,7.10
2019-02-02T10:45:11.266Z,7.10
2019-02-02T10:47:43.330Z,7.20
2019-02-02T10:50:16.803Z,7.20
2019-02-02T10:52:48.887Z,7.30
2019-02-02T10:55:21.386Z,7.50
2019-02-02T10:57:54.266Z,7.70
2019-02-02T11:00:34.387Z,7.70
2019-02-02T11:03:06.528Z,7.80
2019-02-02T11:05:39.650Z,8.00
2019-02-02T11:08:12.177Z,8.00
2019-02-02T11:10:45.567Z,8.00
2019-02-02T11:13:19.219Z,8.00
2019-02-02T11:15:51.643Z,8.00
2019-02-02T11:18:24.022Z,7.80
2019-02-02T11:20:56.999Z,7.90
2019-02-02T11:23:30.609Z,8.00
2019-02-02T11:26:03.837Z,8.00
2019-02-02T11:28:36.744Z,8.00
2019-02-02T11:31:08.529Z,8.00
2019-02-02T11:33:44.262Z,8.10
2019-02-02T11:36:16.250Z,8.10
2019-02-02T11:38:48.891Z,8.10
2019-02-02T11:41:22.748Z,8.10
2019-02-02T11:43:54.688Z,8.00
2019-02-02T11:46:27.671Z,8.00
2019-02-02T11:49:00.671Z,8.00
2019-02-02T11:51:34.048Z,8.00
2019-02-02T11:54:06.370Z,7.90
2019-02-02T11:56:39.349Z,7.90
2019-02-02T11:59:12.289Z,8.00
2019-02-02T12:01:45.524Z,8.10
2019-02-02T12:04:18.714Z,8.20
2019-02-02T12:06:51.131Z,8.20
2019-02-02T12:09:23.508Z,8.10
2019-02-02T12:11:56.908Z,8.10
2019-02-02T12:14:30.049Z,8.00
2019-02-02T12:17:02.248Z,7.90
2019-02-02T12:19:34.448Z,7.90
2019-02-02T12:22:07.788Z,7.80
2019-02-02T12:24:40.608Z,7.70
2019-02-02T12:27:12.948Z,7.70
2019-02-02T12:29:46.268Z,7.70
2019-02-02T12:32:26.439Z,7.60
2019-02-02T12:34:53.478Z,7.60
2019-02-02T12:37:26.009Z,7.60
2019-02-02T12:39:58.568Z,7.50
2019-02-02T12:42:31.110Z,7.60
2019-02-02T12:45:04.289Z,7.70
2019-02-02T12:47:37.477Z,7.70
2019-02-02T12:50:09.959Z,7.80
2019-02-02T12:52:42.830Z,7.90
2019-02-02T12:55:16.984Z,7.90
2019-02-02T12:57:50.376Z,7.90
2019-02-02T13:00:23.385Z,7.90
2019-02-02T13:02:57.165Z,7.90
2019-02-02T13:05:30.530Z,7.80
2019-02-02T13:08:05.335Z,7.90
2019-02-02T13:10:37.605Z,8.00
2019-02-02T13:13:10.604Z,8.10
2019-02-02T13:15:42.924Z,8.00
2019-02-02T13:18:15.183Z,8.10
2019-02-02T13:20:47.664Z,8.00
2019-02-02T13:23:21.143Z,8.00
2019-02-02T13:26:04.662Z,8.10
2019-02-02T13:28:28.604Z,8.20
2019-02-02T13:31:00.565Z,8.20
2019-02-02T13:33:33.426Z,8.20
2019-02-02T13:36:06.684Z,8.20
2019-02-02T13:38:39.704Z,8.20
2019-02-02T13:41:12.003Z,8.30
2019-02-02T13:43:44.803Z,8.30
2019-02-02T13:46:17.603Z,8.30
2019-02-02T13:48:51.075Z,8.30
2019-02-02T13:51:24.145Z,8.30
2019-02-02T13:53:56.943Z,8.40
2019-02-02T13:56:29.107Z,8.40
2019-02-02T13:59:01.324Z,8.40
2019-02-02T14:01:41.795Z,8.40
2019-02-02T14:04:07.487Z,8.40
2019-02-02T14:06:40.945Z,8.40
2019-02-02T14:09:14.223Z,8.50
2019-02-02T14:11:47.804Z,8.50
2019-02-02T14:14:19.986Z,8.50
2019-02-02T14:16:51.184Z,8.50
2019-02-02T14:19:23.670Z,8.50
2019-02-02T14:21:56.763Z,8.50
2019-02-02T14:24:30.423Z,8.50
2019-02-02T14:27:02.424Z,8.50
2019-02-02T14:29:35.024Z,8.60
2019-02-02T14:32:08.463Z,8.60
2019-02-02T14:34:42.064Z,8.60
2019-02-02T14:37:15.323Z,8.60
2019-02-02T14:39:49.254Z,8.60
2019-02-02T14:42:22.690Z,8.60
2019-02-02T14:44:55.905Z,8.60
2019-02-02T14:47:28.283Z,8.70
2019-02-02T14:50:01.425Z,8.70
2019-02-02T14:52:34.425Z,8.70
2019-02-02T14:55:06.864Z,8.70
2019-02-02T14:57:39.410Z,8.70
2019-02-02T15:00:15.790Z,8.60
2019-02-02T15:02:48.303Z,8.60
2019-02-02T15:05:22.607Z,8.70
2019-02-02T15:07:55.183Z,8.70
2019-02-02T15:10:28.148Z,8.70
2019-02-02T15:13:00.946Z,8.60
2019-02-02T15:15:32.487Z,8.60
2019-02-02T15:18:05.084Z,8.60
2019-02-02T15:20:39.224Z,8.60
2019-02-02T15:23:11.785Z,8.60
2019-02-02T15:25:43.685Z,8.60
2019-02-02T15:28:16.286Z,8.60
2019-02-02T15:30:49.266Z,8.50
2019-02-02T15:33:22.305Z,8.40
2019-02-02T15:35:54.477Z,8.40
2019-02-02T15:38:28.226Z,8.40
2019-02-02T15:41:00.584Z,8.30
2019-02-02T15:43:33.824Z,8.30
2019-02-02T15:46:06.225Z,8.30
2019-02-02T15:48:38.845Z,8.30
2019-02-02T15:51:11.923Z,8.20
2019-02-02T15:53:44.205Z,8.20
2019-02-02T15:56:16.564Z,8.10
2019-02-02T15:58:49.124Z,8.10
2019-02-02T16:01:22.383Z,8.10
2019-02-02T16:03:55.325Z,8.10
2019-02-02T16:06:27.504Z,8.10
2019-02-02T16:09:00.484Z,8.10
2019-02-02T16:11:33.005Z,8.10
2019-02-02T16:14:03.785Z,8.00
2019-02-02T16:16:37.465Z,8.10
2019-02-02T16:19:10.268Z,8.00
2019-02-02T16:21:42.152Z,8.00
2019-02-02T16:24:14.853Z,8.00
2019-02-02T16:26:48.703Z,8.00
2019-02-02T16:29:21.864Z,8.00
2019-02-02T16:31:54.704Z,7.90
2019-02-02T16:34:27.186Z,7.90
2019-02-02T16:37:00.133Z,8.00
2019-02-02T16:39:32.178Z,8.00
2019-02-02T16:42:05.345Z,8.00
2019-02-02T16:44:37.866Z,7.90
2019-02-02T16:47:10.365Z,7.90
2019-02-02T16:49:42.985Z,7.90
2019-02-02T16:52:15.564Z,7.90
2019-02-02T16:54:48.623Z,7.90
2019-02-02T16:57:21.228Z,7.90
2019-02-02T16:59:54.287Z,7.90
2019-02-02T17:02:26.645Z,8.00
2019-02-02T17:04:59.583Z,8.00
2019-02-02T17:07:32.785Z,8.00
2019-02-02T17:10:06.565Z,7.90
2019-02-02T17:12:40.473Z,7.90
2019-02-02T17:15:13.895Z,7.70
2019-02-02T17:17:46.567Z,7.70
2019-02-02T17:20:20.863Z,7.70
2019-02-02T17:22:52.925Z,7.70
2019-02-02T17:25:26.085Z,7.60
2019-02-02T17:27:58.567Z,7.60
2019-02-02T17:30:33.944Z,7.50
2019-02-02T17:33:08.285Z,7.60
2019-02-02T17:35:40.823Z,7.50
2019-02-02T17:38:13.964Z,7.50
2019-02-02T17:40:47.529Z,7.50
2019-02-02T17:43:20.643Z,7.50
2019-02-02T17:45:52.704Z,7.50
2019-02-02T17:48:25.324Z,7.50
2019-02-02T17:50:58.431Z,7.50
2019-02-02T17:53:31.465Z,7.60
2019-02-02T17:56:04.004Z,7.60
2019-02-02T17:58:39.873Z,7.70
2019-02-02T18:01:11.205Z,7.70
2019-02-02T18:03:43.846Z,7.70
2019-02-02T18:06:15.622Z,7.70
2019-02-02T18:08:48.306Z,7.70
2019-02-02T18:11:21.164Z,7.70
2019-02-02T18:13:54.224Z,7.70
2019-02-02T18:16:26.743Z,7.70
2019-02-02T18:18:58.984Z,7.70
2019-02-02T18:21:31.765Z,7.70
2019-02-02T18:24:04.526Z,7.80
2019-02-02T18:26:37.804Z,7.80
2019-02-02T18:29:11.583Z,7.70
2019-02-02T18:31:44.964Z,7.70
2019-02-02T18:34:17.387Z,7.70
2019-02-02T18:36:50.546Z,7.70
2019-02-02T18:39:22.745Z,7.60
2019-02-02T18:41:56.106Z,7.50
2019-02-02T18:44:28.943Z,7.40
2019-02-02T18:47:00.924Z,7.30
2019-02-02T18:49:34.083Z,7.40
2019-02-02T18:52:06.367Z,7.40
2019-02-02T18:54:38.423Z,7.30
2019-02-02T18:57:10.723Z,7.30
2019-02-02T18:59:43.585Z,7.30
2019-02-02T19:02:16.004Z,7.20
2019-02-02T19:04:48.703Z,7.20
2019-02-02T19:07:22.224Z,7.10
2019-02-02T19:09:55.803Z,7.10
2019-02-02T19:12:28.326Z,7.20
2019-02-02T19:15:00.424Z,7.20
2019-02-02T19:17:33.086Z,7.20
2019-02-02T19:20:07.104Z,7.20
2019-02-02T19:22:40.484Z,7.10
2019-02-02T19:25:13.345Z,7.10
2019-02-02T19:27:47.123Z,7.10
2019-02-02T19:30:22.483Z,7.10
2019-02-02T19:32:55.424Z,7.00
2019-02-02T19:35:28.204Z,7.00
2019-02-02T19:38:01.244Z,7.00
2019-02-02T19:40:33.144Z,7.10
2019-02-02T19:43:05.764Z,7.10
2019-02-02T19:45:38.983Z,7.10
2019-02-02T19:48:11.764Z,7.10
2019-02-02T19:50:44.465Z,7.00
2019-02-02T19:53:17.184Z,7.00
2019-02-02T19:55:50.364Z,7.00
2019-02-02T19:58:23.664Z,7.00
2019-02-02T20:00:56.444Z,7.10
2019-02-02T20:03:28.884Z,7.10
2019-02-02T20:06:01.489Z,7.10
2019-02-02T20:08:34.463Z,7.10
2019-02-02T20:11:08.265Z,7.10
2019-02-02T20:13:40.864Z,7.10
2019-02-02T20:16:13.585Z,7.20
2019-02-02T20:18:46.584Z,7.20
2019-02-02T20:21:17.867Z,7.20
2019-02-02T20:23:50.284Z,7.20
2019-02-02T20:26:23.348Z,7.20
2019-02-02T20:28:55.104Z,7.10
2019-02-02T20:31:27.684Z,7.10
2019-02-02T20:34:00.704Z,7.10
2019-02-02T20:36:33.424Z,7.10
2019-02-02T20:39:07.183Z,7.00
2019-02-02T20:41:40.265Z,7.00
2019-02-02T20:44:12.346Z,7.00
2019-02-02T20:46:44.686Z,7.00
2019-02-02T20:49:16.745Z,7.00
2019-02-02T20:51:50.407Z,7.00
2019-02-02T20:54:23.964Z,7.00
2019-02-02T20:56:56.545Z,7.00
2019-02-02T20:59:28.884Z,7.00
2019-02-02T21:02:01.585Z,7.00
2019-02-02T21:04:33.465Z,7.00
2019-02-02T21:07:06.463Z,7.00
2019-02-02T21:09:39.225Z,6.90
2019-02-02T21:12:11.968Z,6.90
2019-02-02T21:14:45.488Z,6.90
2019-02-02T21:17:18.364Z,6.90
2019-02-02T21:19:51.048Z,6.80
2019-02-02T21:22:23.904Z,6.80
2019-02-02T21:24:56.982Z,6.80
2019-02-02T21:27:30.444Z,6.80
2019-02-02T21:30:04.143Z,6.70
2019-02-02T21:32:36.023Z,6.80
2019-02-02T21:35:09.092Z,6.80
2019-02-02T21:37:41.807Z,6.80
2019-02-02T21:40:15.583Z,6.80
2019-02-02T21:42:47.386Z,6.70
2019-02-02T21:45:20.805Z,6.80
2019-02-02T21:47:53.643Z,6.70
2019-02-02T21:50:26.743Z,6.70
2019-02-02T21:52:59.305Z,6.70
2019-02-02T21:55:32.043Z,6.70
2019-02-02T21:58:04.735Z,6.70
2019-02-02T22:00:44.563Z,6.80
2019-02-02T22:03:17.363Z,6.90
2019-02-02T22:05:50.484Z,6.90
2019-02-02T22:08:24.394Z,7.00
2019-02-02T22:10:57.363Z,7.00
2019-02-02T22:13:29.903Z,7.00
2019-02-02T22:16:02.842Z,6.90
2019-02-02T22:18:35.364Z,6.80
2019-02-02T22:21:07.976Z,6.70
2019-02-02T22:23:40.366Z,6.70
2019-02-02T22:26:12.865Z,6.70
2019-02-02T22:28:46.207Z,6.70
2019-02-02T22:31:19.243Z,6.70
2019-02-02T22:33:51.583Z,6.70
2019-02-02T22:36:27.515Z,6.70
2019-02-02T22:38:58.684Z,6.70
2019-02-02T22:41:31.504Z,6.70
2019-02-02T22:44:03.965Z,6.70
2019-02-02T22:46:37.005Z,6.70
2019-02-02T22:49:09.884Z,6.60
2019-02-02T22:51:42.507Z,6.70
2019-02-02T22:54:15.264Z,6.70
2019-02-02T22:56:47.683Z,6.80
2019-02-02T22:59:20.365Z,6.90
2019-02-02T23:02:00.126Z,6.90
2019-02-02T23:04:50.824Z,6.80
2019-02-02T23:07:47.323Z,6.90
2019-02-02T23:10:55.723Z,6.90
2019-02-02T23:13:52.406Z,6.90
2019-02-02T23:16:41.965Z,6.90
2019-02-02T23:19:15.523Z,6.90
2019-02-02T23:21:48.026Z,6.80
2019-02-02T23:24:20.364Z,6.90
2019-02-02T23:26:53.343Z,6.90
2019-02-02T23:29:26.006Z,6.90
2019-02-02T23:31:59.724Z,6.90
2019-02-02T23:34:33.246Z,6.90
2019-02-02T23:37:06.545Z,6.90
2019-02-02T23:39:38.852Z,6.90
2019-02-02T23:42:11.546Z,6.90
2019-02-02T23:44:44.264Z,6.90
2019-02-02T23:47:16.465Z,6.90
2019-02-02T23:49:49.284Z,6.80
2019-02-02T23:52:22.043Z,6.80
2019-02-02T23:54:55.283Z,6.80
2019-02-02T23:57:28.443Z,6.80
